createdAt,value
2023-02-06T00:00:00.575Z,95
2023-02-06T00:05:00.540Z,95
2023-02-06T00:10:00.559Z,96
2023-02-06T00:15:00.522Z,96
2023-02-06T00:20:00.500Z,96
2023-02-06T00:25:00.449Z,96
2023-02-06T00:30:00.610Z,96
2023-02-06T00:35:00.441Z,96
2023-02-06T00:40:00.501Z,96
2023-02-06T00:45:00.572Z,96
2023-02-06T00:50:00.599Z,96
2023-02-06T00:55:00.566Z,96
2023-02-06T01:00:00.520Z,96
2023-02-06T01:05:00.534Z,96
2023-02-06T01:10:00.484Z,96
2023-02-06T01:15:00.566Z,96
2023-02-06T01:20:00.472Z,96
2023-02-06T01:25:00.510Z,96
2023-02-06T01:30:00.661Z,96
2023-02-06T01:35:00.529Z,96
2023-02-06T01:40:00.497Z,96
2023-02-06T01:45:00.458Z,96
2023-02-06T01:50:00.603Z,96
2023-02-06T01:55:00.642Z,96
2023-02-06T02:00:00.609Z,96
2023-02-06T02:05:00.628Z,96
2023-02-06T02:10:00.596Z,96
2023-02-06T02:15:00.507Z,96
2023-02-06T02:20:00.594Z,96
2023-02-06T02:25:00.559Z,96
2023-02-06T02:30:00.593Z,96
2023-02-06T02:35:00.483Z,96
2023-02-06T02:40:00.455Z,96
2023-02-06T02:45:00.477Z,96
2023-02-06T02:50:00.564Z,96
2023-02-06T02:55:00.656Z,96
2023-02-06T03:00:00.540Z,96
2023-02-06T03:05:00.615Z,95
2023-02-06T03:10:00.530Z,95
2023-02-06T03:15:00.526Z,95
2023-02-06T03:20:00.447Z,95
2023-02-06T03:25:00.484Z,96
2023-02-06T03:30:00.685Z,96
2023-02-06T03:35:00.542Z,96
2023-02-06T03:40:00.526Z,96
2023-02-06T03:45:00.604Z,96
2023-02-06T03:50:00.514Z,96
2023-02-06T03:55:00.590Z,96
2023-02-06T04:00:00.589Z,96
2023-02-06T04:05:00.548Z,96
2023-02-06T04:10:00.673Z,96
2023-02-06T04:15:00.571Z,96
2023-02-06T04:20:00.512Z,96
2023-02-06T04:25:00.516Z,96
2023-02-06T04:30:00.506Z,96
2023-02-06T04:35:00.575Z,96
2023-02-06T04:40:00.544Z,96
2023-02-06T04:45:00.576Z,96
2023-02-06T04:50:00.507Z,96
2023-02-06T04:55:00.662Z,96
2023-02-06T05:00:00.571Z,96
2023-02-06T05:05:00.452Z,96
2023-02-06T05:10:00.460Z,96
2023-02-06T05:15:00.537Z,96
2023-02-06T05:20:00.523Z,96
2023-02-06T05:25:00.436Z,96
2023-02-06T05:30:00.627Z,96
2023-02-06T05:35:00.534Z,96
2023-02-06T05:40:00.570Z,96
2023-02-06T05:45:00.575Z,96
2023-02-06T05:50:00.580Z,96
2023-02-06T05:55:00.530Z,96
2023-02-06T06:00:00.455Z,96
2023-02-06T06:05:00.567Z,96
2023-02-06T06:10:00.517Z,96
2023-02-06T06:15:00.563Z,96
2023-02-06T06:20:00.486Z,96
2023-02-06T06:25:00.560Z,96
2023-02-06T06:30:00.569Z,97
2023-02-06T06:35:00.565Z,96
2023-02-06T06:40:00.666Z,96
2023-02-06T06:45:00.629Z,97
2023-02-06T06:50:01.263Z,97
2023-02-06T06:55:00.599Z,97
2023-02-06T07:00:00.726Z,97
2023-02-06T07:05:00.696Z,97
2023-02-06T07:10:00.563Z,97
2023-02-06T07:15:00.600Z,96
2023-02-06T07:20:00.481Z,96
2023-02-06T07:25:00.520Z,96
2023-02-06T07:30:00.479Z,96
2023-02-06T07:35:00.586Z,96
2023-02-06T07:40:00.535Z,96
2023-02-06T07:45:00.706Z,96
2023-02-06T07:50:00.531Z,96
2023-02-06T07:55:00.635Z,96
2023-02-06T08:00:00.652Z,96
2023-02-06T08:05:00.450Z,96
2023-02-06T08:10:00.466Z,96
2023-02-06T08:15:00.608Z,96
2023-02-06T08:20:00.617Z,96
2023-02-06T08:25:00.538Z,96
2023-02-06T08:30:00.788Z,96
2023-02-06T08:35:00.609Z,96
2023-02-06T08:40:00.549Z,95
2023-02-06T08:45:00.606Z,95
2023-02-06T08:50:03.152Z,95
2023-02-06T08:55:00.559Z,95
2023-02-06T09:00:00.583Z,94
2023-02-06T09:05:00.638Z,94
2023-02-06T09:10:00.578Z,94
2023-02-06T09:15:00.585Z,94
2023-02-06T09:20:00.582Z,93
2023-02-06T09:25:00.668Z,93
2023-02-06T09:30:00.471Z,93
2023-02-06T09:35:00.628Z,92
2023-02-06T09:40:00.533Z,92
2023-02-06T09:45:00.549Z,91
2023-02-06T09:50:00.530Z,91
2023-02-06T09:55:00.530Z,91
2023-02-06T10:00:00.517Z,91
2023-02-06T10:05:00.572Z,90
2023-02-06T10:10:00.573Z,90
2023-02-06T10:15:00.589Z,89
2023-02-06T10:20:00.484Z,89
2023-02-06T10:25:00.453Z,89
2023-02-06T10:30:00.625Z,89
2023-02-06T10:35:00.513Z,89
2023-02-06T10:40:00.555Z,88
2023-02-06T10:45:17.141Z,87
2023-02-06T10:50:00.606Z,88
2023-02-06T10:55:00.486Z,88
2023-02-06T11:00:00.508Z,88
2023-02-06T11:05:00.703Z,87
2023-02-06T11:10:00.475Z,87
2023-02-06T11:15:00.575Z,87
2023-02-06T11:20:00.466Z,86
2023-02-06T11:25:00.500Z,85
2023-02-06T11:30:00.490Z,85
2023-02-06T11:35:00.557Z,84
2023-02-06T11:40:00.558Z,84
2023-02-06T11:45:00.517Z,81
2023-02-06T11:50:00.522Z,81
2023-02-06T11:55:00.445Z,79
2023-02-06T12:00:00.463Z,79
2023-02-06T12:05:00.462Z,79
2023-02-06T12:10:00.491Z,78
2023-02-06T12:15:02.933Z,78
2023-02-06T12:20:00.496Z,76
2023-02-06T12:25:00.437Z,76
2023-02-06T12:30:00.580Z,75
2023-02-06T12:35:00.579Z,76
2023-02-06T12:40:00.828Z,77
2023-02-06T12:45:00.531Z,77
2023-02-06T12:50:00.485Z,77
2023-02-06T12:55:00.509Z,77
2023-02-06T13:00:00.566Z,73
2023-02-06T13:05:00.600Z,74
2023-02-06T13:10:00.513Z,75
2023-02-06T13:15:00.459Z,74
2023-02-06T13:20:00.507Z,74
2023-02-06T13:25:00.487Z,74
2023-02-06T13:30:00.512Z,76
2023-02-06T13:35:00.546Z,79
2023-02-06T13:40:00.506Z,80
2023-02-06T13:45:00.559Z,80
2023-02-06T13:50:00.477Z,80
2023-02-06T13:55:00.480Z,80
2023-02-06T14:00:00.443Z,76
2023-02-06T14:05:00.572Z,75
2023-02-06T14:10:00.508Z,78
2023-02-06T14:15:00.480Z,74
2023-02-06T14:20:00.526Z,73
2023-02-06T14:25:00.480Z,74
2023-02-06T14:30:00.515Z,75
2023-02-06T14:35:00.553Z,76
2023-02-06T14:40:05.083Z,76
2023-02-06T14:45:00.430Z,77
2023-02-06T14:50:00.467Z,77
2023-02-06T14:55:00.431Z,77
2023-02-06T15:00:00.464Z,77
2023-02-06T15:05:00.500Z,77
2023-02-06T15:10:00.473Z,76
2023-02-06T15:15:00.466Z,76
2023-02-06T15:20:00.421Z,76
2023-02-06T15:25:00.458Z,78
2023-02-06T15:30:00.441Z,78
2023-02-06T15:35:00.581Z,78
2023-02-06T15:40:00.477Z,78
2023-02-06T15:45:00.492Z,79
2023-02-06T15:50:00.713Z,79
2023-02-06T15:55:00.448Z,80
2023-02-06T16:00:00.622Z,81
2023-02-06T16:05:00.772Z,81
2023-02-06T16:10:00.544Z,81
2023-02-06T16:15:00.509Z,82
2023-02-06T16:20:00.491Z,83
2023-02-06T16:25:00.563Z,83
2023-02-06T16:30:00.455Z,84
2023-02-06T16:35:00.599Z,84
2023-02-06T16:40:00.497Z,85
2023-02-06T16:45:00.743Z,87
2023-02-06T16:50:00.543Z,87
2023-02-06T16:55:00.644Z,88
2023-02-06T17:00:00.742Z,88
2023-02-06T17:05:00.640Z,88
2023-02-06T17:10:00.678Z,89
2023-02-06T17:15:00.564Z,89
2023-02-06T17:20:00.616Z,90
2023-02-06T17:25:00.558Z,90
2023-02-06T17:30:00.422Z,90
2023-02-06T17:35:00.449Z,91
2023-02-06T17:40:00.646Z,91
2023-02-06T17:45:00.455Z,92
2023-02-06T17:50:00.524Z,92
2023-02-06T17:55:00.645Z,92
2023-02-06T18:00:00.526Z,92
2023-02-06T18:05:00.558Z,92
2023-02-06T18:10:00.477Z,92
2023-02-06T18:15:00.489Z,92
2023-02-06T18:20:00.429Z,93
2023-02-06T18:25:00.431Z,93
2023-02-06T18:30:00.441Z,93
2023-02-06T18:35:00.602Z,93
2023-02-06T18:40:00.444Z,93
2023-02-06T18:45:02.109Z,94
2023-02-06T18:50:00.430Z,94
2023-02-06T18:55:00.428Z,94
2023-02-06T19:00:00.692Z,94
2023-02-06T19:05:00.443Z,94
2023-02-06T19:10:00.499Z,94
2023-02-06T19:15:00.544Z,94
2023-02-06T19:20:00.435Z,95
2023-02-06T19:25:00.550Z,95
2023-02-06T19:30:00.518Z,95
2023-02-06T19:35:00.593Z,95
2023-02-06T19:40:00.530Z,95
2023-02-06T19:45:00.445Z,95
2023-02-06T19:50:00.539Z,95
2023-02-06T19:55:00.444Z,95
2023-02-06T20:00:00.456Z,95
2023-02-06T20:05:02.553Z,95
2023-02-06T20:10:00.543Z,95
2023-02-06T20:15:00.478Z,95
2023-02-06T20:20:00.435Z,95
2023-02-06T20:25:00.545Z,96
2023-02-06T20:30:00.549Z,96
2023-02-06T20:35:00.549Z,96
2023-02-06T20:40:00.663Z,96
2023-02-06T20:45:00.463Z,96
2023-02-06T20:50:00.480Z,96
2023-02-06T20:55:00.521Z,96
2023-02-06T21:00:00.621Z,96
2023-02-06T21:05:00.436Z,96
2023-02-06T21:10:00.560Z,96
2023-02-06T21:15:00.718Z,96
2023-02-06T21:20:00.544Z,96
2023-02-06T21:25:00.452Z,96
2023-02-06T21:30:00.450Z,96
2023-02-06T21:35:00.582Z,96
2023-02-06T21:40:00.534Z,97
2023-02-06T21:45:00.538Z,97
2023-02-06T21:50:00.426Z,97
2023-02-06T21:55:00.593Z,97
2023-02-06T22:00:00.453Z,97
2023-02-06T22:05:00.515Z,97
2023-02-06T22:10:00.443Z,97
2023-02-06T22:15:00.577Z,97
2023-02-06T22:20:00.447Z,97
2023-02-06T22:25:00.514Z,97
2023-02-06T22:30:00.571Z,97
2023-02-06T22:35:00.548Z,97
2023-02-06T22:40:00.434Z,97
2023-02-06T22:45:00.539Z,97
2023-02-06T22:50:00.636Z,97
2023-02-06T22:55:00.522Z,97
2023-02-06T23:00:00.561Z,97
2023-02-06T23:05:00.496Z,97
2023-02-06T23:10:00.467Z,97
2023-02-06T23:15:00.529Z,97
2023-02-06T23:20:00.435Z,97
2023-02-06T23:25:00.530Z,97
2023-02-06T23:30:00.496Z,97
2023-02-06T23:35:00.527Z,97
2023-02-06T23:40:00.522Z,97
2023-02-06T23:45:00.509Z,97
2023-02-06T23:50:00.542Z,97
2023-02-06T23:55:00.549Z,97
